PWSweather.com
Personal Weather Stations
Station Observations
SPARKSRC
St. Petersburg, FL 33716

St. Petersburg, FL 33716

Lat: 27.876101, Lon: -82.657194

Elevation: 13

Station Type: Zephyr PWS-1000TD

Latest ConditionsUpdated 3:25:01 AM EST Thursday, Dec 12, 2019
Currently Today's Max Today's Min Today's Average
Temperature 65.8°F18.8°C 66.2°F19.0°C 64.9°F18.3°C 65.7°F18.7°C
Dew Point 59.9°F15.5°C 60.2°F15.7°C 58.6°F14.8°C 59.7°F15.4°C
Winds 12.1 mph NE19.5 kmh NE 13.6 mph -21.9 kmh - - 10.5 mph 16.9 kmh
Wind Gusts 19.7 mph31.7 kmh 25.1 mph40.4 kmh - -
Humidity 81% 81% 80% 81%
Pressure 30.22 in1023.4 mb 30.25 in1024.4 mb 30.22 in1023.4 mb -
Hour Temp Dew Point Humidity Winds Wind Gusts Pressure Precip Precip Rate Daily Precip Total
03:25 AM 65.8°F18.8°C 59.9°F15.5°C 81% 12.1 mph NE19.5 kmh NE 19.7 mph31.7 kmh 30.22 in1023.4 mb 0.00 in0.0 mm 0.00 in0.0 mm 0.00 in0.0 mm
03:20 AM 65.8°F18.8°C 59.9°F15.5°C 81% 12.1 mph NNE19.5 kmh NNE 19.7 mph31.7 kmh 30.22 in1023.4 mb 0.00 in0.0 mm 0.00 in0.0 mm 0.00 in0.0 mm
03:15 AM 66.0°F18.9°C 60.0°F15.6°C 81% 11.4 mph N18.3 kmh N 15.9 mph25.6 kmh 30.22 in1023.4 mb 0.00 in0.0 mm 0.00 in0.0 mm 0.00 in0.0 mm
03:10 AM 66.0°F18.9°C 60.0°F15.6°C 81% 10.7 mph NE17.2 kmh NE 15.9 mph25.6 kmh 30.22 in1023.4 mb 0.00 in0.0 mm 0.00 in0.0 mm 0.00 in0.0 mm
03:05 AM 66.0°F18.9°C 60.0°F15.6°C 81% 8.3 mph NE13.4 kmh NE 15.9 mph25.6 kmh 30.22 in1023.4 mb 0.00 in0.0 mm 0.00 in0.0 mm 0.00 in0.0 mm
03:00 AM 66.0°F18.9°C 60.0°F15.6°C 81% 8.3 mph NE13.4 kmh NE 15.9 mph25.6 kmh 30.22 in1023.4 mb 0.00 in0.0 mm 0.00 in0.0 mm 0.00 in0.0 mm
02:55 AM 66.0°F18.9°C 60.0°F15.6°C 81% 9.2 mph NE14.8 kmh NE 20.6 mph33.2 kmh 30.22 in1023.4 mb 0.00 in0.0 mm 0.00 in0.0 mm 0.00 in0.0 mm
02:50 AM 66.0°F18.9°C 60.0°F15.6°C 81% 8.3 mph NE13.4 kmh NE 20.6 mph33.2 kmh 30.22 in1023.4 mb 0.00 in0.0 mm 0.00 in0.0 mm 0.00 in0.0 mm
02:45 AM 66.0°F18.9°C 60.0°F15.6°C 81% 13.6 mph NNE21.9 kmh NNE 20.6 mph33.2 kmh 30.22 in1023.4 mb 0.00 in0.0 mm 0.00 in0.0 mm 0.00 in0.0 mm
02:40 AM 66.0°F18.9°C 60.0°F15.6°C 81% 9.2 mph N14.8 kmh N 18.3 mph29.5 kmh 30.22 in1023.4 mb 0.00 in0.0 mm 0.00 in0.0 mm 0.00 in0.0 mm
02:35 AM 66.0°F18.9°C 60.0°F15.6°C 81% 12.1 mph NNE19.5 kmh NNE 18.3 mph29.5 kmh 30.22 in1023.4 mb 0.00 in0.0 mm 0.00 in0.0 mm 0.00 in0.0 mm
02:30 AM 66.0°F18.9°C 60.0°F15.6°C 81% 8.3 mph NNE13.4 kmh NNE 17.4 mph28.0 kmh 30.23 in1023.7 mb 0.00 in0.0 mm 0.00 in0.0 mm 0.00 in0.0 mm
02:25 AM 66.2°F19.0°C 60.2°F15.7°C 81% 12.1 mph N19.5 kmh N 16.8 mph27.0 kmh 30.22 in1023.4 mb 0.00 in0.0 mm 0.00 in0.0 mm 0.00 in0.0 mm
02:20 AM 66.0°F18.9°C 60.0°F15.6°C 81% 8.3 mph NNE13.4 kmh NNE 17.4 mph28.0 kmh 30.23 in1023.7 mb 0.00 in0.0 mm 0.00 in0.0 mm 0.00 in0.0 mm
02:15 AM 66.0°F18.9°C 60.0°F15.6°C 81% 7.6 mph NE12.2 kmh NE 19.0 mph30.6 kmh 30.22 in1023.4 mb 0.00 in0.0 mm 0.00 in0.0 mm 0.00 in0.0 mm
02:10 AM 66.0°F18.9°C 60.0°F15.6°C 81% 11.4 mph NE18.3 kmh NE 22.1 mph35.6 kmh 30.22 in1023.4 mb 0.00 in0.0 mm 0.00 in0.0 mm 0.00 in0.0 mm
02:05 AM 65.8°F18.8°C 59.9°F15.5°C 81% 13.6 mph NNE21.9 kmh NNE 22.1 mph35.6 kmh 30.23 in1023.7 mb 0.00 in0.0 mm 0.00 in0.0 mm 0.00 in0.0 mm
02:00 AM 66.0°F18.9°C 60.0°F15.6°C 81% 8.3 mph N13.4 kmh N 19.0 mph30.6 kmh 30.23 in1023.7 mb 0.00 in0.0 mm 0.00 in0.0 mm 0.00 in0.0 mm
01:55 AM 65.8°F18.8°C 59.9°F15.5°C 81% 13.0 mph N20.9 kmh N 19.0 mph30.6 kmh 30.22 in1023.4 mb 0.00 in0.0 mm 0.00 in0.0 mm 0.00 in0.0 mm
01:50 AM 65.8°F18.8°C 59.9°F15.5°C 81% 12.1 mph N19.5 kmh N 17.4 mph28.0 kmh 30.23 in1023.7 mb 0.00 in0.0 mm 0.00 in0.0 mm 0.00 in0.0 mm
01:45 AM 65.8°F18.8°C 59.9°F15.5°C 81% 13.6 mph N21.9 kmh N 17.4 mph28.0 kmh 30.23 in1023.7 mb 0.00 in0.0 mm 0.00 in0.0 mm 0.00 in0.0 mm
01:40 AM 65.8°F18.8°C 59.9°F15.5°C 81% 10.7 mph N17.2 kmh N 16.8 mph27.0 kmh 30.24 in1024.0 mb 0.00 in0.0 mm 0.00 in0.0 mm 0.00 in0.0 mm
01:35 AM 65.7°F18.7°C 59.7°F15.4°C 81% 10.7 mph N17.2 kmh N 16.8 mph27.0 kmh 30.24 in1024.0 mb 0.00 in0.0 mm 0.00 in0.0 mm 0.00 in0.0 mm
01:30 AM 65.8°F18.8°C 59.9°F15.5°C 81% 13.0 mph NE20.9 kmh NE 16.8 mph27.0 kmh 30.24 in1024.0 mb 0.00 in0.0 mm 0.00 in0.0 mm 0.00 in0.0 mm
01:25 AM 65.7°F18.7°C 59.7°F15.4°C 81% 7.6 mph NE12.2 kmh NE 19.0 mph30.6 kmh 30.24 in1024.0 mb 0.00 in0.0 mm 0.00 in0.0 mm 0.00 in0.0 mm
01:20 AM 65.7°F18.7°C 59.7°F15.4°C 81% 9.2 mph NNE14.8 kmh NNE 19.0 mph30.6 kmh 30.24 in1024.0 mb 0.00 in0.0 mm 0.00 in0.0 mm 0.00 in0.0 mm
01:15 AM 65.7°F18.7°C 59.7°F15.4°C 81% 11.4 mph NNE18.3 kmh NNE 19.0 mph30.6 kmh 30.24 in1024.0 mb 0.00 in0.0 mm 0.00 in0.0 mm 0.00 in0.0 mm
01:10 AM 65.7°F18.7°C 59.7°F15.4°C 81% 9.8 mph NE15.8 kmh NE 20.6 mph33.2 kmh 30.24 in1024.0 mb 0.00 in0.0 mm 0.00 in0.0 mm 0.00 in0.0 mm
01:05 AM 65.7°F18.7°C 59.7°F15.4°C 81% 8.3 mph NE13.4 kmh NE 25.1 mph40.4 kmh 30.24 in1024.0 mb 0.00 in0.0 mm 0.00 in0.0 mm 0.00 in0.0 mm
01:00 AM 65.7°F18.7°C 59.7°F15.4°C 81% 12.1 mph ENE19.5 kmh ENE 25.1 mph40.4 kmh 30.24 in1024.0 mb 0.00 in0.0 mm 0.00 in0.0 mm 0.00 in0.0 mm
12:55 AM 65.5°F18.6°C 59.5°F15.3°C 81% 8.3 mph NE13.4 kmh NE 17.4 mph28.0 kmh 30.25 in1024.4 mb 0.00 in0.0 mm 0.00 in0.0 mm 0.00 in0.0 mm
12:50 AM 65.5°F18.6°C 59.5°F15.3°C 81% 9.2 mph NE14.8 kmh NE 17.4 mph28.0 kmh 30.25 in1024.4 mb 0.00 in0.0 mm 0.00 in0.0 mm 0.00 in0.0 mm
12:45 AM 65.5°F18.6°C 59.5°F15.3°C 81% 11.4 mph NE18.3 kmh NE 16.8 mph27.0 kmh 30.25 in1024.4 mb 0.00 in0.0 mm 0.00 in0.0 mm 0.00 in0.0 mm
12:40 AM 65.5°F18.6°C 59.5°F15.3°C 81% 9.2 mph ENE14.8 kmh ENE 15.2 mph24.5 kmh 30.25 in1024.4 mb 0.00 in0.0 mm 0.00 in0.0 mm 0.00 in0.0 mm
12:35 AM 65.3°F18.5°C 59.3°F15.2°C 81% 9.2 mph ENE14.8 kmh ENE 19.7 mph31.7 kmh 30.25 in1024.4 mb 0.00 in0.0 mm 0.00 in0.0 mm 0.00 in0.0 mm
12:30 AM 65.3°F18.5°C 59.0°F15.0°C 80% 9.8 mph ENE15.8 kmh ENE 19.7 mph31.7 kmh 30.25 in1024.4 mb 0.00 in0.0 mm 0.00 in0.0 mm 0.00 in0.0 mm
12:25 AM 65.3°F18.5°C 59.0°F15.0°C 80% 7.6 mph NE12.2 kmh NE 19.0 mph30.6 kmh 30.25 in1024.4 mb 0.00 in0.0 mm 0.00 in0.0 mm 0.00 in0.0 mm
12:20 AM 65.1°F18.4°C 58.8°F14.9°C 80% 9.8 mph NE15.8 kmh NE 19.0 mph30.6 kmh 30.25 in1024.4 mb 0.00 in0.0 mm 0.00 in0.0 mm 0.00 in0.0 mm
12:15 AM 65.1°F18.4°C 59.2°F15.1°C 81% 13.0 mph NE20.9 kmh NE 20.6 mph33.2 kmh 30.25 in1024.4 mb 0.00 in0.0 mm 0.00 in0.0 mm 0.00 in0.0 mm
12:10 AM 65.1°F18.4°C 58.8°F14.9°C 80% 11.4 mph NE18.3 kmh NE 20.6 mph33.2 kmh 30.25 in1024.4 mb 0.00 in0.0 mm 0.00 in0.0 mm 0.00 in0.0 mm
12:05 AM 64.9°F18.3°C 58.6°F14.8°C 80% 12.1 mph NE19.5 kmh NE 19.7 mph31.7 kmh 30.25 in1024.4 mb 0.00 in0.0 mm 0.00 in0.0 mm 0.00 in0.0 mm
12:00 AM 64.9°F18.3°C 58.6°F14.8°C 80% 12.1 mph NNE19.5 kmh NNE 19.0 mph30.6 kmh 30.25 in1024.4 mb 0.00 in0.0 mm 0.00 in0.0 mm 0.00 in0.0 mm